sensor_id;sensor_type;location;lat;lon;timestamp;P1;durP1;ratioP1;P2;durP2;ratioP2
38455;SDS011;24237;50.106;20.014;2023-03-20T00:00:55;60.22;;;28.98;;
38455;SDS011;24237;50.106;20.014;2023-03-20T00:03:21;66.53;;;29.83;;
38455;SDS011;24237;50.106;20.014;2023-03-20T00:05:47;59.70;;;29.73;;
38455;SDS011;24237;50.106;20.014;2023-03-20T00:08:14;66.78;;;31.02;;
38455;SDS011;24237;50.106;20.014;2023-03-20T00:10:41;64.40;;;30.90;;
38455;SDS011;24237;50.106;20.014;2023-03-20T00:13:20;62.83;;;28.90;;
38455;SDS011;24237;50.106;20.014;2023-03-20T00:15:50;68.93;;;31.25;;
38455;SDS011;24237;50.106;20.014;2023-03-20T00:18:16;71.22;;;30.83;;
38455;SDS011;24237;50.106;20.014;2023-03-20T00:20:44;62.05;;;28.23;;
38455;SDS011;24237;50.106;20.014;2023-03-20T00:23:11;69.43;;;30.50;;
38455;SDS011;24237;50.106;20.014;2023-03-20T00:25:37;76.45;;;30.98;;
38455;SDS011;24237;50.106;20.014;2023-03-20T00:28:12;67.30;;;30.20;;
38455;SDS011;24237;50.106;20.014;2023-03-20T00:33:53;66.57;;;30.48;;
38455;SDS011;24237;50.106;20.014;2023-03-20T00:36:21;72.38;;;31.88;;
38455;SDS011;24237;50.106;20.014;2023-03-20T00:38:48;64.13;;;30.60;;
38455;SDS011;24237;50.106;20.014;2023-03-20T00:41:18;67.45;;;29.38;;
38455;SDS011;24237;50.106;20.014;2023-03-20T00:43:58;65.60;;;31.10;;
38455;SDS011;24237;50.106;20.014;2023-03-20T00:46:26;64.82;;;30.58;;
38455;SDS011;24237;50.106;20.014;2023-03-20T00:48:52;63.25;;;30.23;;
38455;SDS011;24237;50.106;20.014;2023-03-20T00:51:19;66.72;;;29.42;;
38455;SDS011;24237;50.106;20.014;2023-03-20T00:53:45;60.83;;;28.30;;
38455;SDS011;24237;50.106;20.014;2023-03-20T00:56:31;60.75;;;28.92;;
38455;SDS011;24237;50.106;20.014;2023-03-20T00:59:00;59.67;;;28.13;;
38455;SDS011;24237;50.106;20.014;2023-03-20T01:01:27;59.35;;;27.75;;
38455;SDS011;24237;50.106;20.014;2023-03-20T01:03:55;59.15;;;28.20;;
38455;SDS011;24237;50.106;20.014;2023-03-20T01:06:20;56.67;;;25.85;;
38455;SDS011;24237;50.106;20.014;2023-03-20T01:08:46;55.83;;;27.10;;
38455;SDS011;24237;50.106;20.014;2023-03-20T01:11:12;60.88;;;28.25;;
38455;SDS011;24237;50.106;20.014;2023-03-20T01:13:40;57.60;;;29.67;;
38455;SDS011;24237;50.106;20.014;2023-03-20T01:16:12;59.97;;;29.75;;
38455;SDS011;24237;50.106;20.014;2023-03-20T01:18:46;63.17;;;29.05;;
38455;SDS011;24237;50.106;20.014;2023-03-20T01:21:12;66.38;;;30.55;;
38455;SDS011;24237;50.106;20.014;2023-03-20T01:23:38;65.47;;;32.03;;
38455;SDS011;24237;50.106;20.014;2023-03-20T01:26:03;65.50;;;30.98;;
38455;SDS011;24237;50.106;20.014;2023-03-20T01:28:42;63.22;;;30.88;;
38455;SDS011;24237;50.106;20.014;2023-03-20T01:31:08;61.97;;;28.88;;
38455;SDS011;24237;50.106;20.014;2023-03-20T01:33:34;61.72;;;26.95;;
38455;SDS011;24237;50.106;20.014;2023-03-20T01:35:59;63.17;;;27.05;;
38455;SDS011;24237;50.106;20.014;2023-03-20T01:38:26;56.90;;;26.88;;
38455;SDS011;24237;50.106;20.014;2023-03-20T01:40:53;68.63;;;31.23;;
38455;SDS011;24237;50.106;20.014;2023-03-20T01:43:26;70.72;;;32.10;;
38455;SDS011;24237;50.106;20.014;2023-03-20T01:51:23;69.22;;;32.05;;
38455;SDS011;24237;50.106;20.014;2023-03-20T01:57:02;70.22;;;31.33;;
38455;SDS011;24237;50.106;20.014;2023-03-20T02:00:01;72.95;;;32.88;;
38455;SDS011;24237;50.106;20.014;2023-03-20T02:02:29;69.50;;;32.22;;
38455;SDS011;24237;50.106;20.014;2023-03-20T02:04:58;68.82;;;33.33;;
38455;SDS011;24237;50.106;20.014;2023-03-20T02:07:27;74.22;;;34.42;;
38455;SDS011;24237;50.106;20.014;2023-03-20T02:09:54;74.75;;;34.92;;
38455;SDS011;24237;50.106;20.014;2023-03-20T02:12:20;75.18;;;34.50;;
38455;SDS011;24237;50.106;20.014;2023-03-20T02:14:46;77.30;;;36.53;;
38455;SDS011;24237;50.106;20.014;2023-03-20T02:17:13;81.72;;;35.17;;
38455;SDS011;24237;50.106;20.014;2023-03-20T02:41:29;85.00;;;38.42;;
38455;SDS011;24237;50.106;20.014;2023-03-20T02:55:29;84.97;;;39.10;;
38455;SDS011;24237;50.106;20.014;2023-03-20T02:58:07;80.70;;;34.83;;
38455;SDS011;24237;50.106;20.014;2023-03-20T03:03:40;86.53;;;36.33;;
38455;SDS011;24237;50.106;20.014;2023-03-20T03:08:46;79.97;;;37.45;;
38455;SDS011;24237;50.106;20.014;2023-03-20T03:11:16;90.07;;;38.40;;
38455;SDS011;24237;50.106;20.014;2023-03-20T03:13:49;97.70;;;40.13;;
38455;SDS011;24237;50.106;20.014;2023-03-20T03:16:28;88.25;;;38.95;;
38455;SDS011;24237;50.106;20.014;2023-03-20T03:19:17;90.13;;;38.55;;
38455;SDS011;24237;50.106;20.014;2023-03-20T03:21:47;80.00;;;39.17;;
38455;SDS011;24237;50.106;20.014;2023-03-20T03:24:20;85.45;;;39.28;;
38455;SDS011;24237;50.106;20.014;2023-03-20T03:26:47;81.40;;;37.70;;
38455;SDS011;24237;50.106;20.014;2023-03-20T03:29:14;82.72;;;36.88;;
38455;SDS011;24237;50.106;20.014;2023-03-20T03:31:41;84.65;;;39.58;;
38455;SDS011;24237;50.106;20.014;2023-03-20T03:34:10;91.53;;;39.20;;
38455;SDS011;24237;50.106;20.014;2023-03-20T03:36:49;88.38;;;40.25;;
38455;SDS011;24237;50.106;20.014;2023-03-20T03:39:34;86.63;;;39.45;;
38455;SDS011;24237;50.106;20.014;2023-03-20T03:42:30;93.57;;;38.45;;
38455;SDS011;24237;50.106;20.014;2023-03-20T03:45:13;82.88;;;37.70;;
38455;SDS011;24237;50.106;20.014;2023-03-20T03:47:49;92.63;;;38.97;;
38455;SDS011;24237;50.106;20.014;2023-03-20T03:50:27;81.43;;;38.40;;
38455;SDS011;24237;50.106;20.014;2023-03-20T03:53:01;85.88;;;37.08;;
38455;SDS011;24237;50.106;20.014;2023-03-20T03:55:33;77.57;;;35.65;;
38455;SDS011;24237;50.106;20.014;2023-03-20T03:58:05;83.35;;;39.70;;
38455;SDS011;24237;50.106;20.014;2023-03-20T04:00:40;84.05;;;36.17;;
38455;SDS011;24237;50.106;20.014;2023-03-20T04:03:09;80.85;;;36.72;;
38455;SDS011;24237;50.106;20.014;2023-03-20T04:05:36;84.20;;;37.88;;
38455;SDS011;24237;50.106;20.014;2023-03-20T04:08:06;89.63;;;37.30;;
38455;SDS011;24237;50.106;20.014;2023-03-20T04:10:32;78.78;;;36.90;;
38455;SDS011;24237;50.106;20.014;2023-03-20T04:12:58;79.07;;;36.80;;
38455;SDS011;24237;50.106;20.014;2023-03-20T04:15:24;77.25;;;36.85;;
38455;SDS011;24237;50.106;20.014;2023-03-20T04:17:52;84.50;;;36.80;;
38455;SDS011;24237;50.106;20.014;2023-03-20T04:20:18;84.55;;;35.47;;
38455;SDS011;24237;50.106;20.014;2023-03-20T04:22:44;89.40;;;38.25;;
38455;SDS011;24237;50.106;20.014;2023-03-20T04:25:15;76.65;;;36.65;;
38455;SDS011;24237;50.106;20.014;2023-03-20T04:27:43;79.63;;;35.45;;
38455;SDS011;24237;50.106;20.014;2023-03-20T04:30:09;74.68;;;34.28;;
38455;SDS011;24237;50.106;20.014;2023-03-20T04:32:35;82.20;;;37.07;;
38455;SDS011;24237;50.106;20.014;2023-03-20T04:35:04;69.38;;;30.65;;
38455;SDS011;24237;50.106;20.014;2023-03-20T04:37:30;62.83;;;29.80;;
38455;SDS011;24237;50.106;20.014;2023-03-20T04:39:56;59.13;;;27.50;;
38455;SDS011;24237;50.106;20.014;2023-03-20T04:42:21;64.68;;;31.80;;
38455;SDS011;24237;50.106;20.014;2023-03-20T04:44:47;69.40;;;30.45;;
38455;SDS011;24237;50.106;20.014;2023-03-20T04:47:13;62.45;;;28.65;;
38455;SDS011;24237;50.106;20.014;2023-03-20T04:49:38;67.95;;;31.60;;
38455;SDS011;24237;50.106;20.014;2023-03-20T04:52:04;61.60;;;29.67;;
38455;SDS011;24237;50.106;20.014;2023-03-20T04:54:30;59.28;;;27.70;;
38455;SDS011;24237;50.106;20.014;2023-03-20T04:56:56;58.63;;;27.55;;
38455;SDS011;24237;50.106;20.014;2023-03-20T04:59:21;63.65;;;28.65;;
38455;SDS011;24237;50.106;20.014;2023-03-20T05:01:47;65.07;;;29.92;;
38455;SDS011;24237;50.106;20.014;2023-03-20T05:04:16;64.90;;;30.35;;
38455;SDS011;24237;50.106;20.014;2023-03-20T05:06:42;58.63;;;29.00;;
38455;SDS011;24237;50.106;20.014;2023-03-20T05:09:08;81.03;;;36.15;;
38455;SDS011;24237;50.106;20.014;2023-03-20T05:11:35;80.75;;;35.53;;
38455;SDS011;24237;50.106;20.014;2023-03-20T05:14:01;72.88;;;32.38;;
38455;SDS011;24237;50.106;20.014;2023-03-20T05:16:26;71.43;;;34.88;;
38455;SDS011;24237;50.106;20.014;2023-03-20T05:18:52;80.30;;;36.08;;
38455;SDS011;24237;50.106;20.014;2023-03-20T05:21:18;78.95;;;34.00;;
38455;SDS011;24237;50.106;20.014;2023-03-20T05:23:44;74.07;;;33.85;;
38455;SDS011;24237;50.106;20.014;2023-03-20T05:26:09;79.50;;;35.78;;
38455;SDS011;24237;50.106;20.014;2023-03-20T05:28:35;73.85;;;34.80;;
38455;SDS011;24237;50.106;20.014;2023-03-20T05:31:01;71.77;;;34.20;;
38455;SDS011;24237;50.106;20.014;2023-03-20T05:33:27;70.70;;;33.97;;
38455;SDS011;24237;50.106;20.014;2023-03-20T05:35:53;76.00;;;35.38;;
38455;SDS011;24237;50.106;20.014;2023-03-20T05:41:41;71.43;;;31.17;;
38455;SDS011;24237;50.106;20.014;2023-03-20T05:44:06;73.70;;;31.63;;
38455;SDS011;24237;50.106;20.014;2023-03-20T05:46:40;76.78;;;34.33;;
38455;SDS011;24237;50.106;20.014;2023-03-20T05:49:06;82.05;;;33.53;;
38455;SDS011;24237;50.106;20.014;2023-03-20T05:51:32;70.90;;;32.92;;
38455;SDS011;24237;50.106;20.014;2023-03-20T05:53:58;77.15;;;33.42;;
38455;SDS011;24237;50.106;20.014;2023-03-20T05:56:23;70.28;;;31.58;;
38455;SDS011;24237;50.106;20.014;2023-03-20T05:58:49;67.65;;;32.28;;
38455;SDS011;24237;50.106;20.014;2023-03-20T06:01:16;67.88;;;32.25;;
38455;SDS011;24237;50.106;20.014;2023-03-20T06:03:45;74.55;;;31.75;;
38455;SDS011;24237;50.106;20.014;2023-03-20T06:06:12;63.97;;;28.10;;
38455;SDS011;24237;50.106;20.014;2023-03-20T06:08:41;59.72;;;27.45;;
38455;SDS011;24237;50.106;20.014;2023-03-20T06:11:10;65.43;;;29.88;;
38455;SDS011;24237;50.106;20.014;2023-03-20T06:13:36;52.13;;;23.95;;
38455;SDS011;24237;50.106;20.014;2023-03-20T06:16:02;58.58;;;25.67;;
38455;SDS011;24237;50.106;20.014;2023-03-20T06:18:28;56.05;;;25.13;;
38455;SDS011;24237;50.106;20.014;2023-03-20T06:20:57;54.10;;;24.23;;
38455;SDS011;24237;50.106;20.014;2023-03-20T06:23:22;47.90;;;20.92;;
38455;SDS011;24237;50.106;20.014;2023-03-20T06:25:48;52.60;;;25.38;;
38455;SDS011;24237;50.106;20.014;2023-03-20T06:28:14;50.35;;;21.63;;
38455;SDS011;24237;50.106;20.014;2023-03-20T06:30:41;49.63;;;20.15;;
38455;SDS011;24237;50.106;20.014;2023-03-20T06:33:17;46.17;;;20.38;;
38455;SDS011;24237;50.106;20.014;2023-03-20T06:35:44;47.92;;;22.40;;
38455;SDS011;24237;50.106;20.014;2023-03-20T06:38:10;44.25;;;20.10;;
38455;SDS011;24237;50.106;20.014;2023-03-20T06:40:36;45.65;;;21.95;;
38455;SDS011;24237;50.106;20.014;2023-03-20T06:43:02;56.33;;;24.00;;
38455;SDS011;24237;50.106;20.014;2023-03-20T06:45:28;51.88;;;22.67;;
38455;SDS011;24237;50.106;20.014;2023-03-20T06:47:54;50.35;;;22.83;;
38455;SDS011;24237;50.106;20.014;2023-03-20T06:50:20;63.08;;;24.48;;
38455;SDS011;24237;50.106;20.014;2023-03-20T06:52:46;55.70;;;24.90;;
38455;SDS011;24237;50.106;20.014;2023-03-20T06:55:12;51.35;;;24.33;;
38455;SDS011;24237;50.106;20.014;2023-03-20T06:57:38;70.63;;;28.45;;
38455;SDS011;24237;50.106;20.014;2023-03-20T07:00:04;57.88;;;25.77;;
38455;SDS011;24237;50.106;20.014;2023-03-20T07:02:31;55.05;;;24.90;;
38455;SDS011;24237;50.106;20.014;2023-03-20T07:04:57;55.03;;;24.10;;
38455;SDS011;24237;50.106;20.014;2023-03-20T07:07:23;48.50;;;22.92;;
38455;SDS011;24237;50.106;20.014;2023-03-20T07:09:49;42.10;;;22.55;;
38455;SDS011;24237;50.106;20.014;2023-03-20T07:12:15;46.53;;;22.55;;
38455;SDS011;24237;50.106;20.014;2023-03-20T07:14:44;46.50;;;20.25;;
38455;SDS011;24237;50.106;20.014;2023-03-20T07:17:10;43.83;;;21.67;;
38455;SDS011;24237;50.106;20.014;2023-03-20T07:19:36;39.10;;;20.83;;
38455;SDS011;24237;50.106;20.014;2023-03-20T07:22:03;40.53;;;20.17;;
38455;SDS011;24237;50.106;20.014;2023-03-20T07:24:32;40.40;;;20.33;;
38455;SDS011;24237;50.106;20.014;2023-03-20T07:26:58;42.30;;;20.37;;
38455;SDS011;24237;50.106;20.014;2023-03-20T07:29:24;41.55;;;20.63;;
38455;SDS011;24237;50.106;20.014;2023-03-20T07:31:51;41.80;;;19.33;;
38455;SDS011;24237;50.106;20.014;2023-03-20T07:34:17;41.47;;;20.63;;
38455;SDS011;24237;50.106;20.014;2023-03-20T07:36:43;46.15;;;20.75;;
38455;SDS011;24237;50.106;20.014;2023-03-20T07:39:09;43.63;;;20.63;;
38455;SDS011;24237;50.106;20.014;2023-03-20T07:41:38;39.97;;;19.73;;
38455;SDS011;24237;50.106;20.014;2023-03-20T07:44:04;39.97;;;20.00;;
38455;SDS011;24237;50.106;20.014;2023-03-20T07:46:50;36.67;;;18.80;;
38455;SDS011;24237;50.106;20.014;2023-03-20T07:49:15;39.38;;;19.45;;
38455;SDS011;24237;50.106;20.014;2023-03-20T07:51:42;40.60;;;21.13;;
38455;SDS011;24237;50.106;20.014;2023-03-20T07:54:12;41.65;;;20.10;;
38455;SDS011;24237;50.106;20.014;2023-03-20T07:56:38;38.58;;;18.95;;
38455;SDS011;24237;50.106;20.014;2023-03-20T07:59:04;40.63;;;19.85;;
38455;SDS011;24237;50.106;20.014;2023-03-20T08:01:30;39.88;;;17.95;;
38455;SDS011;24237;50.106;20.014;2023-03-20T08:03:55;38.17;;;19.15;;
38455;SDS011;24237;50.106;20.014;2023-03-20T08:06:21;36.28;;;18.17;;
38455;SDS011;24237;50.106;20.014;2023-03-20T08:08:47;43.95;;;18.58;;
38455;SDS011;24237;50.106;20.014;2023-03-20T08:11:15;38.42;;;19.55;;
38455;SDS011;24237;50.106;20.014;2023-03-20T08:13:41;36.50;;;18.70;;
38455;SDS011;24237;50.106;20.014;2023-03-20T08:16:07;41.13;;;18.95;;
38455;SDS011;24237;50.106;20.014;2023-03-20T08:18:33;37.75;;;18.27;;
38455;SDS011;24237;50.106;20.014;2023-03-20T08:20:59;38.22;;;19.30;;
38455;SDS011;24237;50.106;20.014;2023-03-20T08:23:24;45.90;;;18.58;;
38455;SDS011;24237;50.106;20.014;2023-03-20T08:25:51;31.95;;;16.77;;
38455;SDS011;24237;50.106;20.014;2023-03-20T08:28:18;39.40;;;18.65;;
38455;SDS011;24237;50.106;20.014;2023-03-20T08:30:44;35.70;;;18.23;;
38455;SDS011;24237;50.106;20.014;2023-03-20T08:33:11;32.88;;;18.33;;
38455;SDS011;24237;50.106;20.014;2023-03-20T08:38:04;36.35;;;18.25;;
38455;SDS011;24237;50.106;20.014;2023-03-20T08:40:30;36.47;;;18.23;;
38455;SDS011;24237;50.106;20.014;2023-03-20T08:42:57;35.90;;;18.23;;
38455;SDS011;24237;50.106;20.014;2023-03-20T08:45:22;38.50;;;18.85;;
38455;SDS011;24237;50.106;20.014;2023-03-20T08:47:50;38.30;;;17.63;;
38455;SDS011;24237;50.106;20.014;2023-03-20T08:50:16;38.58;;;19.88;;
38455;SDS011;24237;50.106;20.014;2023-03-20T08:52:42;35.92;;;19.45;;
38455;SDS011;24237;50.106;20.014;2023-03-20T08:55:12;34.25;;;18.08;;
38455;SDS011;24237;50.106;20.014;2023-03-20T08:57:39;35.28;;;19.15;;
38455;SDS011;24237;50.106;20.014;2023-03-20T09:00:05;42.42;;;18.92;;
38455;SDS011;24237;50.106;20.014;2023-03-20T09:02:32;39.85;;;19.13;;
38455;SDS011;24237;50.106;20.014;2023-03-20T09:05:01;36.10;;;20.00;;
38455;SDS011;24237;50.106;20.014;2023-03-20T09:07:26;45.35;;;19.70;;
38455;SDS011;24237;50.106;20.014;2023-03-20T09:09:52;37.47;;;19.40;;
38455;SDS011;24237;50.106;20.014;2023-03-20T09:12:18;37.40;;;20.15;;
38455;SDS011;24237;50.106;20.014;2023-03-20T09:14:43;40.33;;;20.42;;
38455;SDS011;24237;50.106;20.014;2023-03-20T09:17:09;38.10;;;20.33;;
38455;SDS011;24237;50.106;20.014;2023-03-20T09:19:35;41.80;;;19.83;;
38455;SDS011;24237;50.106;20.014;2023-03-20T09:22:03;47.00;;;21.58;;
38455;SDS011;24237;50.106;20.014;2023-03-20T09:24:32;39.53;;;21.75;;
38455;SDS011;24237;50.106;20.014;2023-03-20T09:26:57;34.58;;;20.25;;
38455;SDS011;24237;50.106;20.014;2023-03-20T09:29:24;43.63;;;21.98;;
38455;SDS011;24237;50.106;20.014;2023-03-20T09:31:51;40.67;;;21.65;;
38455;SDS011;24237;50.106;20.014;2023-03-20T09:34:21;41.00;;;20.90;;
38455;SDS011;24237;50.106;20.014;2023-03-20T09:36:46;33.05;;;18.75;;
38455;SDS011;24237;50.106;20.014;2023-03-20T09:39:12;41.15;;;20.05;;
38455;SDS011;24237;50.106;20.014;2023-03-20T09:41:38;44.17;;;20.80;;
38455;SDS011;24237;50.106;20.014;2023-03-20T09:44:15;42.08;;;19.58;;
38455;SDS011;24237;50.106;20.014;2023-03-20T09:49:57;33.08;;;16.45;;
38455;SDS011;24237;50.106;20.014;2023-03-20T09:52:51;28.15;;;15.85;;
38455;SDS011;24237;50.106;20.014;2023-03-20T09:55:20;30.58;;;16.02;;
38455;SDS011;24237;50.106;20.014;2023-03-20T09:57:52;33.25;;;18.02;;
38455;SDS011;24237;50.106;20.014;2023-03-20T10:00:25;37.30;;;17.52;;
38455;SDS011;24237;50.106;20.014;2023-03-20T10:03:16;32.13;;;17.65;;
38455;SDS011;24237;50.106;20.014;2023-03-20T10:05:48;36.88;;;18.23;;
38455;SDS011;24237;50.106;20.014;2023-03-20T10:08:20;31.02;;;16.65;;
38455;SDS011;24237;50.106;20.014;2023-03-20T10:10:54;27.13;;;16.88;;
38455;SDS011;24237;50.106;20.014;2023-03-20T10:13:49;37.93;;;16.87;;
38455;SDS011;24237;50.106;20.014;2023-03-20T10:16:39;35.78;;;14.85;;
38455;SDS011;24237;50.106;20.014;2023-03-20T10:19:43;29.17;;;15.63;;
38455;SDS011;24237;50.106;20.014;2023-03-20T10:22:37;39.42;;;19.85;;
38455;SDS011;24237;50.106;20.014;2023-03-20T10:27:51;30.97;;;17.07;;
38455;SDS011;24237;50.106;20.014;2023-03-20T10:30:31;43.85;;;18.52;;
38455;SDS011;24237;50.106;20.014;2023-03-20T10:41:09;32.40;;;18.80;;
38455;SDS011;24237;50.106;20.014;2023-03-20T10:43:41;30.98;;;18.55;;
38455;SDS011;24237;50.106;20.014;2023-03-20T10:46:10;38.25;;;18.23;;
38455;SDS011;24237;50.106;20.014;2023-03-20T10:48:48;35.70;;;19.15;;
38455;SDS011;24237;50.106;20.014;2023-03-20T10:51:17;41.90;;;20.40;;
38455;SDS011;24237;50.106;20.014;2023-03-20T10:53:47;34.83;;;18.58;;
38455;SDS011;24237;50.106;20.014;2023-03-20T10:56:22;39.08;;;18.20;;
38455;SDS011;24237;50.106;20.014;2023-03-20T10:59:03;34.03;;;18.52;;
38455;SDS011;24237;50.106;20.014;2023-03-20T11:01:50;26.73;;;16.77;;
38455;SDS011;24237;50.106;20.014;2023-03-20T11:04:16;29.80;;;17.13;;
38455;SDS011;24237;50.106;20.014;2023-03-20T11:06:51;33.83;;;18.98;;
38455;SDS011;24237;50.106;20.014;2023-03-20T11:09:36;34.50;;;17.63;;
38455;SDS011;24237;50.106;20.014;2023-03-20T11:12:01;38.45;;;19.05;;
38455;SDS011;24237;50.106;20.014;2023-03-20T11:14:32;35.65;;;19.05;;
38455;SDS011;24237;50.106;20.014;2023-03-20T11:16:59;30.92;;;18.88;;
38455;SDS011;24237;50.106;20.014;2023-03-20T11:19:28;32.33;;;17.17;;
38455;SDS011;24237;50.106;20.014;2023-03-20T11:21:59;34.33;;;17.60;;
38455;SDS011;24237;50.106;20.014;2023-03-20T11:24:43;36.38;;;19.20;;
38455;SDS011;24237;50.106;20.014;2023-03-20T11:29:38;36.05;;;18.38;;
38455;SDS011;24237;50.106;20.014;2023-03-20T11:32:26;49.90;;;18.83;;
38455;SDS011;24237;50.106;20.014;2023-03-20T11:34:56;21.48;;;12.48;;
38455;SDS011;24237;50.106;20.014;2023-03-20T11:37:43;23.52;;;12.13;;
38455;SDS011;24237;50.106;20.014;2023-03-20T11:42:36;28.65;;;14.10;;
38455;SDS011;24237;50.106;20.014;2023-03-20T11:45:03;28.88;;;14.02;;
38455;SDS011;24237;50.106;20.014;2023-03-20T11:47:39;32.92;;;13.57;;
38455;SDS011;24237;50.106;20.014;2023-03-20T11:50:05;29.00;;;15.15;;
38455;SDS011;24237;50.106;20.014;2023-03-20T11:52:48;28.55;;;15.13;;
38455;SDS011;24237;50.106;20.014;2023-03-20T11:58:25;32.00;;;16.52;;
38455;SDS011;24237;50.106;20.014;2023-03-20T12:00:53;40.95;;;16.73;;
38455;SDS011;24237;50.106;20.014;2023-03-20T12:03:36;32.58;;;17.02;;
38455;SDS011;24237;50.106;20.014;2023-03-20T12:06:12;39.77;;;18.43;;
38455;SDS011;24237;50.106;20.014;2023-03-20T12:08:40;34.22;;;17.27;;
38455;SDS011;24237;50.106;20.014;2023-03-20T12:13:56;25.30;;;13.82;;
38455;SDS011;24237;50.106;20.014;2023-03-20T12:16:24;30.38;;;15.20;;
38455;SDS011;24237;50.106;20.014;2023-03-20T12:18:55;28.50;;;14.52;;
38455;SDS011;24237;50.106;20.014;2023-03-20T12:24:36;23.70;;;14.13;;
38455;SDS011;24237;50.106;20.014;2023-03-20T12:27:14;36.85;;;15.43;;
38455;SDS011;24237;50.106;20.014;2023-03-20T12:35:30;25.90;;;14.38;;
38455;SDS011;24237;50.106;20.014;2023-03-20T12:38:00;28.55;;;15.50;;
38455;SDS011;24237;50.106;20.014;2023-03-20T12:40:46;30.42;;;15.60;;
38455;SDS011;24237;50.106;20.014;2023-03-20T12:43:15;23.83;;;14.45;;
38455;SDS011;24237;50.106;20.014;2023-03-20T12:45:49;29.58;;;13.80;;
38455;SDS011;24237;50.106;20.014;2023-03-20T12:59:26;22.48;;;10.23;;
38455;SDS011;24237;50.106;20.014;2023-03-20T13:16:21;18.65;;;8.05;;
38455;SDS011;24237;50.106;20.014;2023-03-20T13:21:34;17.52;;;10.88;;
38455;SDS011;24237;50.106;20.014;2023-03-20T13:29:49;17.52;;;10.73;;
38455;SDS011;24237;50.106;20.014;2023-03-20T13:32:42;23.80;;;11.88;;
38455;SDS011;24237;50.106;20.014;2023-03-20T13:35:19;27.05;;;12.30;;
38455;SDS011;24237;50.106;20.014;2023-03-20T13:37:55;24.75;;;12.13;;
38455;SDS011;24237;50.106;20.014;2023-03-20T13:40:27;25.40;;;12.85;;
38455;SDS011;24237;50.106;20.014;2023-03-20T13:45:38;24.58;;;13.63;;
38455;SDS011;24237;50.106;20.014;2023-03-20T13:48:13;24.73;;;15.13;;
38455;SDS011;24237;50.106;20.014;2023-03-20T13:51:13;31.35;;;14.20;;
38455;SDS011;24237;50.106;20.014;2023-03-20T13:53:56;25.77;;;13.05;;
38455;SDS011;24237;50.106;20.014;2023-03-20T14:05:19;29.92;;;15.60;;
38455;SDS011;24237;50.106;20.014;2023-03-20T14:07:47;36.28;;;15.07;;
38455;SDS011;24237;50.106;20.014;2023-03-20T14:12:54;32.15;;;15.60;;
38455;SDS011;24237;50.106;20.014;2023-03-20T14:15:35;28.87;;;16.60;;
38455;SDS011;24237;50.106;20.014;2023-03-20T14:18:10;33.95;;;16.75;;
38455;SDS011;24237;50.106;20.014;2023-03-20T14:20:40;33.97;;;17.85;;
38455;SDS011;24237;50.106;20.014;2023-03-20T14:23:17;47.60;;;18.55;;
38455;SDS011;24237;50.106;20.014;2023-03-20T14:25:49;34.58;;;18.48;;
38455;SDS011;24237;50.106;20.014;2023-03-20T14:30:45;36.90;;;19.40;;
38455;SDS011;24237;50.106;20.014;2023-03-20T14:38:31;46.53;;;20.80;;
38455;SDS011;24237;50.106;20.014;2023-03-20T14:49:13;49.13;;;24.50;;
38455;SDS011;24237;50.106;20.014;2023-03-20T14:51:50;47.47;;;23.10;;
38455;SDS011;24237;50.106;20.014;2023-03-20T14:56:50;42.22;;;21.55;;
38455;SDS011;24237;50.106;20.014;2023-03-20T14:59:18;40.53;;;20.55;;
38455;SDS011;24237;50.106;20.014;2023-03-20T15:04:38;32.95;;;20.42;;
38455;SDS011;24237;50.106;20.014;2023-03-20T15:07:09;33.42;;;19.55;;
38455;SDS011;24237;50.106;20.014;2023-03-20T15:09:40;36.33;;;20.15;;
38455;SDS011;24237;50.106;20.014;2023-03-20T15:12:08;34.50;;;19.63;;
38455;SDS011;24237;50.106;20.014;2023-03-20T15:14:50;35.97;;;20.10;;
38455;SDS011;24237;50.106;20.014;2023-03-20T15:17:21;38.97;;;20.58;;
38455;SDS011;24237;50.106;20.014;2023-03-20T15:20:02;46.08;;;22.52;;
38455;SDS011;24237;50.106;20.014;2023-03-20T15:25:32;44.85;;;22.27;;
38455;SDS011;24237;50.106;20.014;2023-03-20T15:28:01;47.25;;;20.80;;
38455;SDS011;24237;50.106;20.014;2023-03-20T15:30:33;46.13;;;22.10;;
38455;SDS011;24237;50.106;20.014;2023-03-20T15:33:02;47.10;;;22.60;;
38455;SDS011;24237;50.106;20.014;2023-03-20T15:35:28;49.08;;;24.38;;
38455;SDS011;24237;50.106;20.014;2023-03-20T15:38:15;46.22;;;23.23;;
38455;SDS011;24237;50.106;20.014;2023-03-20T15:40:41;61.33;;;24.25;;
38455;SDS011;24237;50.106;20.014;2023-03-20T15:43:11;42.70;;;24.00;;
38455;SDS011;24237;50.106;20.014;2023-03-20T15:45:43;50.83;;;29.00;;
38455;SDS011;24237;50.106;20.014;2023-03-20T15:48:16;49.53;;;26.65;;
38455;SDS011;24237;50.106;20.014;2023-03-20T15:50:44;57.08;;;26.63;;
38455;SDS011;24237;50.106;20.014;2023-03-20T15:53:16;48.33;;;28.00;;
38455;SDS011;24237;50.106;20.014;2023-03-20T15:55:56;47.83;;;28.13;;
38455;SDS011;24237;50.106;20.014;2023-03-20T15:58:30;43.08;;;26.60;;
38455;SDS011;24237;50.106;20.014;2023-03-20T16:00:57;48.25;;;27.15;;
38455;SDS011;24237;50.106;20.014;2023-03-20T16:03:24;47.40;;;26.65;;
38455;SDS011;24237;50.106;20.014;2023-03-20T16:05:52;48.97;;;25.45;;
38455;SDS011;24237;50.106;20.014;2023-03-20T16:08:22;41.60;;;25.95;;
38455;SDS011;24237;50.106;20.014;2023-03-20T16:10:53;44.38;;;27.10;;
38455;SDS011;24237;50.106;20.014;2023-03-20T16:13:22;46.85;;;29.55;;
38455;SDS011;24237;50.106;20.014;2023-03-20T16:15:48;48.97;;;29.17;;
38455;SDS011;24237;50.106;20.014;2023-03-20T16:18:15;52.45;;;29.95;;
38455;SDS011;24237;50.106;20.014;2023-03-20T16:20:48;47.75;;;28.77;;
38455;SDS011;24237;50.106;20.014;2023-03-20T16:23:25;48.33;;;28.13;;
38455;SDS011;24237;50.106;20.014;2023-03-20T16:26:01;46.33;;;28.25;;
38455;SDS011;24237;50.106;20.014;2023-03-20T16:28:30;47.80;;;28.05;;
38455;SDS011;24237;50.106;20.014;2023-03-20T16:31:02;50.00;;;30.02;;
38455;SDS011;24237;50.106;20.014;2023-03-20T16:33:37;48.55;;;28.88;;
38455;SDS011;24237;50.106;20.014;2023-03-20T16:36:04;54.53;;;30.05;;
38455;SDS011;24237;50.106;20.014;2023-03-20T16:38:32;55.00;;;29.75;;
38455;SDS011;24237;50.106;20.014;2023-03-20T16:43:55;45.58;;;29.95;;
38455;SDS011;24237;50.106;20.014;2023-03-20T16:46:22;47.72;;;29.40;;
38455;SDS011;24237;50.106;20.014;2023-03-20T16:48:56;49.55;;;31.13;;
38455;SDS011;24237;50.106;20.014;2023-03-20T16:51:37;58.40;;;31.52;;
38455;SDS011;24237;50.106;20.014;2023-03-20T16:54:12;61.65;;;31.95;;
38455;SDS011;24237;50.106;20.014;2023-03-20T16:56:44;58.20;;;33.03;;
38455;SDS011;24237;50.106;20.014;2023-03-20T16:59:17;54.33;;;33.50;;
38455;SDS011;24237;50.106;20.014;2023-03-20T17:01:44;51.78;;;33.08;;
38455;SDS011;24237;50.106;20.014;2023-03-20T17:06:52;53.60;;;31.85;;
38455;SDS011;24237;50.106;20.014;2023-03-20T17:09:26;55.78;;;34.33;;
38455;SDS011;24237;50.106;20.014;2023-03-20T17:12:02;61.95;;;33.25;;
38455;SDS011;24237;50.106;20.014;2023-03-20T17:14:40;51.00;;;34.45;;